sensor_id;sensor_type;location;lat;lon;timestamp;P1;durP1;ratioP1;P2;durP2;ratioP2
59972;SDS011;55298;-36.624;-64.282;2023-05-16T00:01:23;9.57;;;5.40;;
59972;SDS011;55298;-36.624;-64.282;2023-05-16T00:03:55;8.73;;;4.90;;
59972;SDS011;55298;-36.624;-64.282;2023-05-16T00:06:23;10.15;;;3.80;;
59972;SDS011;55298;-36.624;-64.282;2023-05-16T00:08:51;6.65;;;3.83;;
59972;SDS011;55298;-36.624;-64.282;2023-05-16T00:11:19;4.85;;;3.70;;
59972;SDS011;55298;-36.624;-64.282;2023-05-16T00:13:46;9.65;;;3.53;;
59972;SDS011;55298;-36.624;-64.282;2023-05-16T00:16:15;8.65;;;3.30;;
59972;SDS011;55298;-36.624;-64.282;2023-05-16T00:18:43;11.00;;;3.60;;
59972;SDS011;55298;-36.624;-64.282;2023-05-16T00:21:10;8.98;;;3.00;;
59972;SDS011;55298;-36.624;-64.282;2023-05-16T00:23:38;11.50;;;2.97;;
59972;SDS011;55298;-36.624;-64.282;2023-05-16T00:26:06;11.80;;;3.15;;
59972;SDS011;55298;-36.624;-64.282;2023-05-16T00:28:34;6.57;;;2.90;;
59972;SDS011;55298;-36.624;-64.282;2023-05-16T00:31:01;9.90;;;3.28;;
59972;SDS011;55298;-36.624;-64.282;2023-05-16T00:33:29;8.90;;;2.88;;
59972;SDS011;55298;-36.624;-64.282;2023-05-16T00:35:57;7.45;;;3.05;;
59972;SDS011;55298;-36.624;-64.282;2023-05-16T00:38:25;6.18;;;2.60;;
59972;SDS011;55298;-36.624;-64.282;2023-05-16T00:40:53;4.00;;;2.70;;
59972;SDS011;55298;-36.624;-64.282;2023-05-16T00:43:20;10.85;;;3.03;;
59972;SDS011;55298;-36.624;-64.282;2023-05-16T00:45:48;9.45;;;3.08;;
59972;SDS011;55298;-36.624;-64.282;2023-05-16T00:48:16;8.65;;;2.80;;
59972;SDS011;55298;-36.624;-64.282;2023-05-16T00:50:44;6.65;;;2.67;;
59972;SDS011;55298;-36.624;-64.282;2023-05-16T00:53:12;9.30;;;2.97;;
59972;SDS011;55298;-36.624;-64.282;2023-05-16T00:55:39;7.35;;;2.67;;
59972;SDS011;55298;-36.624;-64.282;2023-05-16T00:58:08;9.02;;;2.90;;
59972;SDS011;55298;-36.624;-64.282;2023-05-16T01:00:38;14.48;;;2.97;;
59972;SDS011;55298;-36.624;-64.282;2023-05-16T01:03:06;7.93;;;2.95;;
59972;SDS011;55298;-36.624;-64.282;2023-05-16T01:05:34;8.93;;;3.30;;
59972;SDS011;55298;-36.624;-64.282;2023-05-16T01:08:02;8.25;;;3.63;;
59972;SDS011;55298;-36.624;-64.282;2023-05-16T01:10:49;11.43;;;4.20;;
59972;SDS011;55298;-36.624;-64.282;2023-05-16T01:13:30;7.80;;;3.72;;
59972;SDS011;55298;-36.624;-64.282;2023-05-16T01:16:15;13.25;;;4.63;;
59972;SDS011;55298;-36.624;-64.282;2023-05-16T01:27:35;8.00;;;3.33;;
59972;SDS011;55298;-36.624;-64.282;2023-05-16T01:32:45;8.27;;;3.22;;
59972;SDS011;55298;-36.624;-64.282;2023-05-16T01:35:15;9.85;;;3.50;;
59972;SDS011;55298;-36.624;-64.282;2023-05-16T01:41:06;12.05;;;3.33;;
59972;SDS011;55298;-36.624;-64.282;2023-05-16T01:43:31;11.30;;;3.15;;
59972;SDS011;55298;-36.624;-64.282;2023-05-16T01:46:05;9.20;;;3.33;;
59972;SDS011;55298;-36.624;-64.282;2023-05-16T01:48:38;6.15;;;3.30;;
59972;SDS011;55298;-36.624;-64.282;2023-05-16T01:51:21;6.93;;;3.10;;
59972;SDS011;55298;-36.624;-64.282;2023-05-16T01:54:04;6.95;;;3.30;;
59972;SDS011;55298;-36.624;-64.282;2023-05-16T01:56:35;9.75;;;3.08;;
59972;SDS011;55298;-36.624;-64.282;2023-05-16T01:59:05;11.85;;;3.50;;
59972;SDS011;55298;-36.624;-64.282;2023-05-16T02:01:34;5.18;;;3.35;;
59972;SDS011;55298;-36.624;-64.282;2023-05-16T02:04:10;9.32;;;3.20;;
59972;SDS011;55298;-36.624;-64.282;2023-05-16T02:06:40;5.05;;;3.10;;
59972;SDS011;55298;-36.624;-64.282;2023-05-16T02:09:08;8.95;;;3.20;;
59972;SDS011;55298;-36.624;-64.282;2023-05-16T02:11:36;10.88;;;2.90;;
59972;SDS011;55298;-36.624;-64.282;2023-05-16T02:14:04;7.57;;;3.60;;
59972;SDS011;55298;-36.624;-64.282;2023-05-16T02:16:32;10.77;;;3.40;;
59972;SDS011;55298;-36.624;-64.282;2023-05-16T02:19:00;10.10;;;3.10;;
59972;SDS011;55298;-36.624;-64.282;2023-05-16T02:21:27;8.27;;;3.20;;
59972;SDS011;55298;-36.624;-64.282;2023-05-16T02:23:55;11.73;;;3.13;;
59972;SDS011;55298;-36.624;-64.282;2023-05-16T02:26:23;12.65;;;2.80;;
59972;SDS011;55298;-36.624;-64.282;2023-05-16T02:28:51;11.43;;;3.03;;
59972;SDS011;55298;-36.624;-64.282;2023-05-16T02:31:27;7.78;;;3.17;;
59972;SDS011;55298;-36.624;-64.282;2023-05-16T02:33:56;8.07;;;3.33;;
59972;SDS011;55298;-36.624;-64.282;2023-05-16T02:36:25;6.90;;;2.97;;
59972;SDS011;55298;-36.624;-64.282;2023-05-16T02:38:53;10.23;;;3.42;;
59972;SDS011;55298;-36.624;-64.282;2023-05-16T02:41:21;7.80;;;3.05;;
59972;SDS011;55298;-36.624;-64.282;2023-05-16T02:43:49;8.57;;;3.13;;
59972;SDS011;55298;-36.624;-64.282;2023-05-16T02:46:27;8.38;;;3.00;;
59972;SDS011;55298;-36.624;-64.282;2023-05-16T02:48:57;11.20;;;3.20;;
59972;SDS011;55298;-36.624;-64.282;2023-05-16T02:51:25;7.22;;;3.60;;
59972;SDS011;55298;-36.624;-64.282;2023-05-16T02:53:54;8.15;;;3.30;;
59972;SDS011;55298;-36.624;-64.282;2023-05-16T02:56:24;12.65;;;3.20;;
59972;SDS011;55298;-36.624;-64.282;2023-05-16T02:58:52;10.93;;;3.10;;
59972;SDS011;55298;-36.624;-64.282;2023-05-16T03:01:21;8.50;;;3.30;;
59972;SDS011;55298;-36.624;-64.282;2023-05-16T03:03:48;7.18;;;2.90;;
59972;SDS011;55298;-36.624;-64.282;2023-05-16T03:06:17;8.75;;;3.35;;
59972;SDS011;55298;-36.624;-64.282;2023-05-16T03:08:45;7.93;;;4.10;;
59972;SDS011;55298;-36.624;-64.282;2023-05-16T03:11:13;8.43;;;3.55;;
59972;SDS011;55298;-36.624;-64.282;2023-05-16T03:13:45;7.57;;;3.30;;
59972;SDS011;55298;-36.624;-64.282;2023-05-16T03:16:13;6.68;;;2.90;;
59972;SDS011;55298;-36.624;-64.282;2023-05-16T03:18:41;8.60;;;3.30;;
59972;SDS011;55298;-36.624;-64.282;2023-05-16T03:21:09;10.55;;;3.35;;
59972;SDS011;55298;-36.624;-64.282;2023-05-16T03:23:37;12.02;;;3.47;;
59972;SDS011;55298;-36.624;-64.282;2023-05-16T03:26:05;7.53;;;3.03;;
59972;SDS011;55298;-36.624;-64.282;2023-05-16T03:28:32;11.18;;;3.33;;
59972;SDS011;55298;-36.624;-64.282;2023-05-16T03:31:00;8.80;;;3.75;;
59972;SDS011;55298;-36.624;-64.282;2023-05-16T03:33:28;8.13;;;3.00;;
59972;SDS011;55298;-36.624;-64.282;2023-05-16T03:35:56;8.73;;;3.22;;
59972;SDS011;55298;-36.624;-64.282;2023-05-16T03:38:24;10.95;;;3.45;;
59972;SDS011;55298;-36.624;-64.282;2023-05-16T03:40:51;15.52;;;4.90;;
59972;SDS011;55298;-36.624;-64.282;2023-05-16T03:43:20;9.38;;;3.15;;
59972;SDS011;55298;-36.624;-64.282;2023-05-16T03:45:48;9.38;;;3.20;;
59972;SDS011;55298;-36.624;-64.282;2023-05-16T03:48:16;6.88;;;3.22;;
59972;SDS011;55298;-36.624;-64.282;2023-05-16T03:50:43;13.02;;;3.20;;
59972;SDS011;55298;-36.624;-64.282;2023-05-16T03:53:11;13.35;;;3.38;;
59972;SDS011;55298;-36.624;-64.282;2023-05-16T03:55:39;8.70;;;2.97;;
59972;SDS011;55298;-36.624;-64.282;2023-05-16T03:58:07;5.25;;;2.85;;
59972;SDS011;55298;-36.624;-64.282;2023-05-16T04:00:34;8.32;;;2.92;;
59972;SDS011;55298;-36.624;-64.282;2023-05-16T04:03:02;5.35;;;3.08;;
59972;SDS011;55298;-36.624;-64.282;2023-05-16T04:05:30;12.27;;;3.45;;
59972;SDS011;55298;-36.624;-64.282;2023-05-16T04:07:58;10.00;;;3.45;;
59972;SDS011;55298;-36.624;-64.282;2023-05-16T04:10:26;8.70;;;3.13;;
59972;SDS011;55298;-36.624;-64.282;2023-05-16T04:12:54;7.53;;;3.45;;
59972;SDS011;55298;-36.624;-64.282;2023-05-16T04:15:21;6.10;;;3.20;;
59972;SDS011;55298;-36.624;-64.282;2023-05-16T04:17:49;9.07;;;2.92;;
59972;SDS011;55298;-36.624;-64.282;2023-05-16T04:20:17;12.20;;;2.83;;
59972;SDS011;55298;-36.624;-64.282;2023-05-16T04:22:45;7.13;;;3.20;;
59972;SDS011;55298;-36.624;-64.282;2023-05-16T04:25:13;7.50;;;3.25;;
59972;SDS011;55298;-36.624;-64.282;2023-05-16T04:27:41;8.23;;;2.83;;
59972;SDS011;55298;-36.624;-64.282;2023-05-16T04:30:09;12.00;;;3.55;;
59972;SDS011;55298;-36.624;-64.282;2023-05-16T04:32:39;9.10;;;3.10;;
59972;SDS011;55298;-36.624;-64.282;2023-05-16T04:35:07;8.50;;;2.85;;
59972;SDS011;55298;-36.624;-64.282;2023-05-16T04:37:35;7.80;;;2.80;;
59972;SDS011;55298;-36.624;-64.282;2023-05-16T04:40:02;8.82;;;3.25;;
59972;SDS011;55298;-36.624;-64.282;2023-05-16T04:42:32;8.73;;;3.10;;
59972;SDS011;55298;-36.624;-64.282;2023-05-16T04:45:00;5.07;;;2.88;;
59972;SDS011;55298;-36.624;-64.282;2023-05-16T04:47:28;8.27;;;3.13;;
59972;SDS011;55298;-36.624;-64.282;2023-05-16T04:49:56;11.10;;;3.42;;
59972;SDS011;55298;-36.624;-64.282;2023-05-16T04:52:24;4.65;;;3.13;;
59972;SDS011;55298;-36.624;-64.282;2023-05-16T04:54:51;10.23;;;2.90;;
59972;SDS011;55298;-36.624;-64.282;2023-05-16T04:57:20;6.35;;;3.17;;
59972;SDS011;55298;-36.624;-64.282;2023-05-16T04:59:48;8.30;;;2.83;;
59972;SDS011;55298;-36.624;-64.282;2023-05-16T05:02:16;9.30;;;2.95;;
59972;SDS011;55298;-36.624;-64.282;2023-05-16T05:04:43;4.35;;;2.97;;
59972;SDS011;55298;-36.624;-64.282;2023-05-16T05:07:11;5.90;;;2.95;;
59972;SDS011;55298;-36.624;-64.282;2023-05-16T05:09:39;9.20;;;3.20;;
59972;SDS011;55298;-36.624;-64.282;2023-05-16T05:12:07;11.95;;;3.95;;
59972;SDS011;55298;-36.624;-64.282;2023-05-16T05:14:35;10.15;;;3.20;;
59972;SDS011;55298;-36.624;-64.282;2023-05-16T05:17:03;6.82;;;3.05;;
59972;SDS011;55298;-36.624;-64.282;2023-05-16T05:19:31;12.13;;;3.25;;
59972;SDS011;55298;-36.624;-64.282;2023-05-16T05:21:59;5.13;;;3.05;;
59972;SDS011;55298;-36.624;-64.282;2023-05-16T05:24:27;7.75;;;3.17;;
59972;SDS011;55298;-36.624;-64.282;2023-05-16T05:26:54;4.07;;;2.90;;
59972;SDS011;55298;-36.624;-64.282;2023-05-16T05:29:24;6.60;;;3.55;;
59972;SDS011;55298;-36.624;-64.282;2023-05-16T05:31:52;5.97;;;2.90;;
59972;SDS011;55298;-36.624;-64.282;2023-05-16T05:34:20;8.82;;;3.95;;
59972;SDS011;55298;-36.624;-64.282;2023-05-16T05:36:48;4.50;;;2.85;;
59972;SDS011;55298;-36.624;-64.282;2023-05-16T05:39:15;6.32;;;3.47;;
59972;SDS011;55298;-36.624;-64.282;2023-05-16T05:41:43;6.05;;;3.13;;
59972;SDS011;55298;-36.624;-64.282;2023-05-16T05:44:11;6.47;;;3.33;;
59972;SDS011;55298;-36.624;-64.282;2023-05-16T05:46:39;6.40;;;3.33;;
59972;SDS011;55298;-36.624;-64.282;2023-05-16T05:49:07;8.25;;;3.13;;
59972;SDS011;55298;-36.624;-64.282;2023-05-16T05:51:35;5.05;;;3.50;;
59972;SDS011;55298;-36.624;-64.282;2023-05-16T05:54:03;6.97;;;3.70;;
59972;SDS011;55298;-36.624;-64.282;2023-05-16T05:56:30;8.48;;;3.42;;
59972;SDS011;55298;-36.624;-64.282;2023-05-16T05:58:59;6.60;;;3.60;;
59972;SDS011;55298;-36.624;-64.282;2023-05-16T06:01:26;4.35;;;2.83;;
59972;SDS011;55298;-36.624;-64.282;2023-05-16T06:03:54;8.77;;;3.50;;
59972;SDS011;55298;-36.624;-64.282;2023-05-16T06:06:22;5.68;;;3.35;;
59972;SDS011;55298;-36.624;-64.282;2023-05-16T06:08:50;4.10;;;3.30;;
59972;SDS011;55298;-36.624;-64.282;2023-05-16T06:11:17;6.03;;;3.60;;
59972;SDS011;55298;-36.624;-64.282;2023-05-16T06:13:46;5.22;;;3.40;;
59972;SDS011;55298;-36.624;-64.282;2023-05-16T06:16:14;5.93;;;2.92;;
59972;SDS011;55298;-36.624;-64.282;2023-05-16T06:18:41;6.78;;;3.10;;
59972;SDS011;55298;-36.624;-64.282;2023-05-16T06:21:10;6.70;;;3.30;;
59972;SDS011;55298;-36.624;-64.282;2023-05-16T06:23:37;7.03;;;3.08;;
59972;SDS011;55298;-36.624;-64.282;2023-05-16T06:26:05;6.75;;;3.38;;
59972;SDS011;55298;-36.624;-64.282;2023-05-16T06:28:33;3.47;;;2.95;;
59972;SDS011;55298;-36.624;-64.282;2023-05-16T06:31:01;7.05;;;3.10;;
59972;SDS011;55298;-36.624;-64.282;2023-05-16T06:33:28;8.02;;;3.38;;
59972;SDS011;55298;-36.624;-64.282;2023-05-16T06:35:56;7.15;;;3.53;;
59972;SDS011;55298;-36.624;-64.282;2023-05-16T06:38:24;3.50;;;3.20;;
59972;SDS011;55298;-36.624;-64.282;2023-05-16T06:40:51;5.47;;;3.67;;
59972;SDS011;55298;-36.624;-64.282;2023-05-16T06:43:19;3.42;;;3.03;;
59972;SDS011;55298;-36.624;-64.282;2023-05-16T06:45:47;3.55;;;2.95;;
59972;SDS011;55298;-36.624;-64.282;2023-05-16T06:48:16;4.70;;;3.55;;
59972;SDS011;55298;-36.624;-64.282;2023-05-16T06:50:47;5.40;;;3.05;;
59972;SDS011;55298;-36.624;-64.282;2023-05-16T06:53:17;5.13;;;4.05;;
59972;SDS011;55298;-36.624;-64.282;2023-05-16T06:55:45;6.07;;;3.03;;
59972;SDS011;55298;-36.624;-64.282;2023-05-16T06:58:13;7.18;;;3.28;;
59972;SDS011;55298;-36.624;-64.282;2023-05-16T07:00:40;3.80;;;3.03;;
59972;SDS011;55298;-36.624;-64.282;2023-05-16T07:03:08;4.90;;;2.80;;
59972;SDS011;55298;-36.624;-64.282;2023-05-16T07:05:36;4.82;;;3.33;;
59972;SDS011;55298;-36.624;-64.282;2023-05-16T07:08:04;9.45;;;3.30;;
59972;SDS011;55298;-36.624;-64.282;2023-05-16T07:10:32;8.57;;;3.58;;
59972;SDS011;55298;-36.624;-64.282;2023-05-16T07:12:59;5.28;;;3.65;;
59972;SDS011;55298;-36.624;-64.282;2023-05-16T07:15:27;4.53;;;3.20;;
59972;SDS011;55298;-36.624;-64.282;2023-05-16T07:17:55;5.28;;;3.22;;
59972;SDS011;55298;-36.624;-64.282;2023-05-16T07:20:23;6.68;;;3.25;;
59972;SDS011;55298;-36.624;-64.282;2023-05-16T07:22:51;8.07;;;3.60;;
59972;SDS011;55298;-36.624;-64.282;2023-05-16T07:25:22;5.00;;;3.15;;
59972;SDS011;55298;-36.624;-64.282;2023-05-16T07:27:50;6.75;;;3.58;;
59972;SDS011;55298;-36.624;-64.282;2023-05-16T07:30:18;4.68;;;3.70;;
59972;SDS011;55298;-36.624;-64.282;2023-05-16T07:32:46;7.32;;;3.65;;
59972;SDS011;55298;-36.624;-64.282;2023-05-16T07:35:14;5.28;;;3.25;;
59972;SDS011;55298;-36.624;-64.282;2023-05-16T07:37:42;3.90;;;3.25;;
59972;SDS011;55298;-36.624;-64.282;2023-05-16T07:40:10;8.48;;;3.95;;
59972;SDS011;55298;-36.624;-64.282;2023-05-16T07:42:39;7.00;;;3.45;;
59972;SDS011;55298;-36.624;-64.282;2023-05-16T07:45:07;7.55;;;3.72;;
59972;SDS011;55298;-36.624;-64.282;2023-05-16T07:47:35;7.10;;;3.28;;
59972;SDS011;55298;-36.624;-64.282;2023-05-16T07:50:02;9.32;;;3.30;;
59972;SDS011;55298;-36.624;-64.282;2023-05-16T07:52:30;3.97;;;3.40;;
59972;SDS011;55298;-36.624;-64.282;2023-05-16T07:54:58;6.13;;;3.20;;
59972;SDS011;55298;-36.624;-64.282;2023-05-16T07:57:27;6.88;;;3.17;;
59972;SDS011;55298;-36.624;-64.282;2023-05-16T07:59:55;5.63;;;3.42;;
59972;SDS011;55298;-36.624;-64.282;2023-05-16T08:02:24;8.00;;;3.78;;
59972;SDS011;55298;-36.624;-64.282;2023-05-16T08:04:55;5.88;;;3.38;;
59972;SDS011;55298;-36.624;-64.282;2023-05-16T08:07:23;4.97;;;3.28;;
59972;SDS011;55298;-36.624;-64.282;2023-05-16T08:09:50;5.93;;;3.65;;
59972;SDS011;55298;-36.624;-64.282;2023-05-16T08:12:18;3.75;;;3.42;;
59972;SDS011;55298;-36.624;-64.282;2023-05-16T08:14:46;7.05;;;3.70;;
59972;SDS011;55298;-36.624;-64.282;2023-05-16T08:17:14;4.22;;;3.22;;
59972;SDS011;55298;-36.624;-64.282;2023-05-16T08:19:41;6.70;;;3.40;;
59972;SDS011;55298;-36.624;-64.282;2023-05-16T08:22:09;6.15;;;3.47;;
59972;SDS011;55298;-36.624;-64.282;2023-05-16T08:24:37;4.55;;;3.60;;
59972;SDS011;55298;-36.624;-64.282;2023-05-16T08:27:05;5.55;;;3.53;;
59972;SDS011;55298;-36.624;-64.282;2023-05-16T08:29:33;6.47;;;3.58;;
59972;SDS011;55298;-36.624;-64.282;2023-05-16T08:32:02;5.43;;;3.50;;
59972;SDS011;55298;-36.624;-64.282;2023-05-16T08:34:31;8.55;;;3.80;;
59972;SDS011;55298;-36.624;-64.282;2023-05-16T08:36:58;4.10;;;3.78;;
59972;SDS011;55298;-36.624;-64.282;2023-05-16T08:39:26;5.97;;;3.45;;
59972;SDS011;55298;-36.624;-64.282;2023-05-16T08:41:55;4.90;;;3.67;;
59972;SDS011;55298;-36.624;-64.282;2023-05-16T08:44:23;4.30;;;3.90;;
59972;SDS011;55298;-36.624;-64.282;2023-05-16T08:46:55;4.60;;;3.35;;
59972;SDS011;55298;-36.624;-64.282;2023-05-16T08:49:28;4.35;;;3.13;;
59972;SDS011;55298;-36.624;-64.282;2023-05-16T08:51:57;6.55;;;4.32;;
59972;SDS011;55298;-36.624;-64.282;2023-05-16T08:54:27;4.35;;;3.30;;
59972;SDS011;55298;-36.624;-64.282;2023-05-16T08:56:55;8.30;;;4.10;;
59972;SDS011;55298;-36.624;-64.282;2023-05-16T08:59:24;8.63;;;4.05;;
59972;SDS011;55298;-36.624;-64.282;2023-05-16T09:01:52;4.50;;;3.42;;
59972;SDS011;55298;-36.624;-64.282;2023-05-16T09:04:21;4.40;;;3.75;;
59972;SDS011;55298;-36.624;-64.282;2023-05-16T09:06:50;4.20;;;3.80;;
59972;SDS011;55298;-36.624;-64.282;2023-05-16T09:09:18;5.63;;;3.50;;
59972;SDS011;55298;-36.624;-64.282;2023-05-16T09:11:46;5.07;;;3.90;;
59972;SDS011;55298;-36.624;-64.282;2023-05-16T09:14:14;7.65;;;4.20;;
59972;SDS011;55298;-36.624;-64.282;2023-05-16T09:16:44;7.68;;;4.15;;
59972;SDS011;55298;-36.624;-64.282;2023-05-16T09:19:31;6.00;;;4.22;;
59972;SDS011;55298;-36.624;-64.282;2023-05-16T09:22:06;4.10;;;3.70;;
59972;SDS011;55298;-36.624;-64.282;2023-05-16T09:24:41;5.75;;;3.70;;
59972;SDS011;55298;-36.624;-64.282;2023-05-16T09:27:10;6.93;;;4.13;;
59972;SDS011;55298;-36.624;-64.282;2023-05-16T09:29:40;8.38;;;4.65;;
59972;SDS011;55298;-36.624;-64.282;2023-05-16T09:32:13;5.93;;;4.50;;
59972;SDS011;55298;-36.624;-64.282;2023-05-16T09:34:43;5.47;;;4.20;;
59972;SDS011;55298;-36.624;-64.282;2023-05-16T09:37:13;7.05;;;3.95;;
59972;SDS011;55298;-36.624;-64.282;2023-05-16T09:39:44;6.55;;;4.07;;
59972;SDS011;55298;-36.624;-64.282;2023-05-16T09:42:14;4.25;;;3.85;;
59972;SDS011;55298;-36.624;-64.282;2023-05-16T09:44:48;9.05;;;4.63;;
59972;SDS011;55298;-36.624;-64.282;2023-05-16T09:47:18;6.47;;;4.57;;
59972;SDS011;55298;-36.624;-64.282;2023-05-16T09:49:50;5.15;;;4.53;;
59972;SDS011;55298;-36.624;-64.282;2023-05-16T09:52:19;10.60;;;4.88;;
59972;SDS011;55298;-36.624;-64.282;2023-05-16T09:54:47;6.85;;;4.78;;
59972;SDS011;55298;-36.624;-64.282;2023-05-16T09:57:18;6.78;;;4.22;;
59972;SDS011;55298;-36.624;-64.282;2023-05-16T09:59:46;6.20;;;4.50;;
59972;SDS011;55298;-36.624;-64.282;2023-05-16T10:02:15;8.25;;;4.63;;
59972;SDS011;55298;-36.624;-64.282;2023-05-16T10:04:43;10.93;;;4.63;;
59972;SDS011;55298;-36.624;-64.282;2023-05-16T10:07:11;4.97;;;4.40;;
59972;SDS011;55298;-36.624;-64.282;2023-05-16T10:09:39;10.70;;;4.78;;
59972;SDS011;55298;-36.624;-64.282;2023-05-16T10:12:08;6.70;;;4.60;;
59972;SDS011;55298;-36.624;-64.282;2023-05-16T10:14:40;13.07;;;4.85;;
59972;SDS011;55298;-36.624;-64.282;2023-05-16T10:17:11;7.85;;;4.32;;
59972;SDS011;55298;-36.624;-64.282;2023-05-16T10:19:41;5.85;;;4.50;;
59972;SDS011;55298;-36.624;-64.282;2023-05-16T10:22:16;7.07;;;4.18;;
59972;SDS011;55298;-36.624;-64.282;2023-05-16T10:24:50;5.53;;;4.50;;
59972;SDS011;55298;-36.624;-64.282;2023-05-16T10:27:24;5.97;;;4.25;;
59972;SDS011;55298;-36.624;-64.282;2023-05-16T10:29:53;9.90;;;4.50;;
59972;SDS011;55298;-36.624;-64.282;2023-05-16T10:32:23;8.88;;;4.97;;
59972;SDS011;55298;-36.624;-64.282;2023-05-16T10:34:51;6.32;;;4.65;;
59972;SDS011;55298;-36.624;-64.282;2023-05-16T10:37:30;6.90;;;4.90;;
59972;SDS011;55298;-36.624;-64.282;2023-05-16T10:39:58;5.53;;;5.03;;
59972;SDS011;55298;-36.624;-64.282;2023-05-16T10:42:31;11.57;;;6.07;;
59972;SDS011;55298;-36.624;-64.282;2023-05-16T10:45:09;7.07;;;5.25;;
59972;SDS011;55298;-36.624;-64.282;2023-05-16T10:47:55;8.30;;;5.35;;
59972;SDS011;55298;-36.624;-64.282;2023-05-16T10:55:49;8.18;;;5.30;;
59972;SDS011;55298;-36.624;-64.282;2023-05-16T11:01:21;12.13;;;5.43;;
59972;SDS011;55298;-36.624;-64.282;2023-05-16T11:03:59;11.63;;;5.45;;
59972;SDS011;55298;-36.624;-64.282;2023-05-16T11:06:30;14.48;;;5.93;;
59972;SDS011;55298;-36.624;-64.282;2023-05-16T11:09:06;12.82;;;5.82;;
59972;SDS011;55298;-36.624;-64.282;2023-05-16T11:11:54;16.73;;;5.93;;
59972;SDS011;55298;-36.624;-64.282;2023-05-16T11:14:38;13.60;;;6.20;;
59972;SDS011;55298;-36.624;-64.282;2023-05-16T11:17:11;9.38;;;6.03;;
59972;SDS011;55298;-36.624;-64.282;2023-05-16T11:19:47;7.22;;;5.70;;
59972;SDS011;55298;-36.624;-64.282;2023-05-16T11:22:24;14.75;;;6.05;;
59972;SDS011;55298;-36.624;-64.282;2023-05-16T11:25:02;7.53;;;4.93;;
59972;SDS011;55298;-36.624;-64.282;2023-05-16T11:27:35;8.63;;;4.03;;
59972;SDS011;55298;-36.624;-64.282;2023-05-16T11:30:13;7.70;;;5.13;;
59972;SDS011;55298;-36.624;-64.282;2023-05-16T11:32:47;6.07;;;5.07;;
59972;SDS011;55298;-36.624;-64.282;2023-05-16T11:35:15;10.30;;;5.47;;
59972;SDS011;55298;-36.624;-64.282;2023-05-16T11:37:46;5.68;;;5.07;;
59972;SDS011;55298;-36.624;-64.282;2023-05-16T11:40:19;7.45;;;4.78;;
59972;SDS011;55298;-36.624;-64.282;2023-05-16T11:42:48;8.43;;;5.20;;
59972;SDS011;55298;-36.624;-64.282;2023-05-16T11:45:19;5.90;;;4.57;;
59972;SDS011;55298;-36.624;-64.282;2023-05-16T11:47:49;8.02;;;4.95;;
59972;SDS011;55298;-36.624;-64.282;2023-05-16T11:50:21;5.95;;;4.30;;
59972;SDS011;55298;-36.624;-64.282;2023-05-16T11:52:50;7.18;;;4.03;;
59972;SDS011;55298;-36.624;-64.282;2023-05-16T11:55:24;5.88;;;3.95;;
59972;SDS011;55298;-36.624;-64.282;2023-05-16T11:57:57;6.57;;;5.07;;
59972;SDS011;55298;-36.624;-64.282;2023-05-16T12:00:26;12.32;;;4.38;;
59972;SDS011;55298;-36.624;-64.282;2023-05-16T12:02:59;6.50;;;3.92;;
59972;SDS011;55298;-36.624;-64.282;2023-05-16T12:05:29;4.90;;;3.60;;
59972;SDS011;55298;-36.624;-64.282;2023-05-16T12:07:57;8.30;;;4.40;;
59972;SDS011;55298;-36.624;-64.282;2023-05-16T12:10:27;6.07;;;3.80;;
59972;SDS011;55298;-36.624;-64.282;2023-05-16T12:13:04;13.93;;;4.78;;
59972;SDS011;55298;-36.624;-64.282;2023-05-16T12:15:34;10.55;;;5.07;;
59972;SDS011;55298;-36.624;-64.282;2023-05-16T12:18:02;6.22;;;4.05;;
59972;SDS011;55298;-36.624;-64.282;2023-05-16T12:20:31;6.95;;;4.13;;
59972;SDS011;55298;-36.624;-64.282;2023-05-16T12:23:01;8.88;;;4.63;;
59972;SDS011;55298;-36.624;-64.282;2023-05-16T12:25:29;10.95;;;4.85;;
59972;SDS011;55298;-36.624;-64.282;2023-05-16T12:28:02;5.93;;;3.42;;
59972;SDS011;55298;-36.624;-64.282;2023-05-16T12:30:32;9.50;;;4.22;;
59972;SDS011;55298;-36.624;-64.282;2023-05-16T12:33:07;7.95;;;3.90;;
59972;SDS011;55298;-36.624;-64.282;2023-05-16T12:35:38;6.82;;;3.85;;
59972;SDS011;55298;-36.624;-64.282;2023-05-16T12:38:09;6.78;;;3.90;;
59972;SDS011;55298;-36.624;-64.282;2023-05-16T12:40:42;13.52;;;5.15;;
59972;SDS011;55298;-36.624;-64.282;2023-05-16T12:43:12;14.25;;;4.35;;
59972;SDS011;55298;-36.624;-64.282;2023-05-16T12:45:48;12.80;;;4.47;;
59972;SDS011;55298;-36.624;-64.282;2023-05-16T12:48:19;4.68;;;3.13;;
59972;SDS011;55298;-36.624;-64.282;2023-05-16T12:50:48;6.55;;;3.88;;
59972;SDS011;55298;-36.624;-64.282;2023-05-16T12:53:16;5.35;;;3.40;;
59972;SDS011;55298;-36.624;-64.282;2023-05-16T12:55:45;5.82;;;3.38;;
59972;SDS011;55298;-36.624;-64.282;2023-05-16T12:58:12;7.13;;;3.47;;
59972;SDS011;55298;-36.624;-64.282;2023-05-16T13:00:40;6.07;;;3.70;;
59972;SDS011;55298;-36.624;-64.282;2023-05-16T13:03:09;6.18;;;3.78;;
59972;SDS011;55298;-36.624;-64.282;2023-05-16T13:05:37;8.98;;;4.88;;
59972;SDS011;55298;-36.624;-64.282;2023-05-16T13:08:06;6.03;;;3.97;;
59972;SDS011;55298;-36.624;-64.282;2023-05-16T13:10:36;6.95;;;4.32;;
59972;SDS011;55298;-36.624;-64.282;2023-05-16T13:13:05;8.13;;;4.95;;
59972;SDS011;55298;-36.624;-64.282;2023-05-16T13:15:33;10.77;;;4.43;;
59972;SDS011;55298;-36.624;-64.282;2023-05-16T13:18:05;19.20;;;6.90;;
59972;SDS011;55298;-36.624;-64.282;2023-05-16T13:20:36;6.15;;;3.30;;
59972;SDS011;55298;-36.624;-64.282;2023-05-16T13:23:04;8.43;;;3.83;;
59972;SDS011;55298;-36.624;-64.282;2023-05-16T13:25:35;6.93;;;3.95;;
59972;SDS011;55298;-36.624;-64.282;2023-05-16T13:28:03;7.80;;;4.68;;
59972;SDS011;55298;-36.624;-64.282;2023-05-16T13:30:31;11.55;;;4.20;;
59972;SDS011;55298;-36.624;-64.282;2023-05-16T13:32:59;9.20;;;4.32;;
59972;SDS011;55298;-36.624;-64.282;2023-05-16T13:35:27;8.70;;;3.92;;
59972;SDS011;55298;-36.624;-64.282;2023-05-16T13:37:56;9.75;;;4.10;;
59972;SDS011;55298;-36.624;-64.282;2023-05-16T13:40:25;6.60;;;4.00;;
59972;SDS011;55298;-36.624;-64.282;2023-05-16T13:42:54;9.27;;;4.00;;
59972;SDS011;55298;-36.624;-64.282;2023-05-16T13:45:22;12.40;;;7.05;;
59972;SDS011;55298;-36.624;-64.282;2023-05-16T13:47:53;7.32;;;4.70;;
59972;SDS011;55298;-36.624;-64.282;2023-05-16T13:50:24;10.67;;;4.43;;
59972;SDS011;55298;-36.624;-64.282;2023-05-16T13:52:51;5.10;;;3.72;;
59972;SDS011;55298;-36.624;-64.282;2023-05-16T13:55:20;8.02;;;3.67;;
59972;SDS011;55298;-36.624;-64.282;2023-05-16T13:57:48;8.23;;;3.75;;
59972;SDS011;55298;-36.624;-64.282;2023-05-16T14:00:19;7.97;;;3.17;;
59972;SDS011;55298;-36.624;-64.282;2023-05-16T14:02:51;13.88;;;5.50;;
59972;SDS011;55298;-36.624;-64.282;2023-05-16T14:05:19;7.65;;;3.13;;
59972;SDS011;55298;-36.624;-64.282;2023-05-16T14:07:47;4.75;;;3.00;;
59972;SDS011;55298;-36.624;-64.282;2023-05-16T14:10:15;8.52;;;4.20;;
59972;SDS011;55298;-36.624;-64.282;2023-05-16T14:12:43;5.35;;;2.97;;
59972;SDS011;55298;-36.624;-64.282;2023-05-16T14:15:11;9.15;;;3.35;;
59972;SDS011;55298;-36.624;-64.282;2023-05-16T14:17:39;9.27;;;3.35;;
59972;SDS011;55298;-36.624;-64.282;2023-05-16T14:20:14;7.15;;;3.10;;
59972;SDS011;55298;-36.624;-64.282;2023-05-16T14:22:56;9.93;;;4.32;;
59972;SDS011;55298;-36.624;-64.282;2023-05-16T14:25:24;7.85;;;3.80;;
59972;SDS011;55298;-36.624;-64.282;2023-05-16T14:27:53;6.43;;;3.35;;
59972;SDS011;55298;-36.624;-64.282;2023-05-16T14:30:26;6.28;;;2.85;;
59972;SDS011;55298;-36.624;-64.282;2023-05-16T14:32:56;8.25;;;3.15;;
59972;SDS011;55298;-36.624;-64.282;2023-05-16T14:35:23;4.97;;;2.83;;
59972;SDS011;55298;-36.624;-64.282;2023-05-16T14:37:52;9.43;;;3.90;;
59972;SDS011;55298;-36.624;-64.282;2023-05-16T14:40:20;9.77;;;2.92;;
59972;SDS011;55298;-36.624;-64.282;2023-05-16T14:42:48;7.43;;;2.83;;